• Join FlightAware (Why Join?)
  • Login
  • US Flag 
12:13PM EDT


 

Airport Tracker/Info


-or-


 

Live Flight TrackerFlight Track Log ✈ CTL17 ✈ 08-May-2013 ✈ KYIP - KBKL

Flight Track Log - Related Links

Times and Time Zones

All times are in EDT time to prevent confusion due to time zone crossing. See the CTL17 flight status page for this flight to view local times or setup timezone preferences in your user account.

Time Position Orientation Groundspeed Altitude Reporting Facility
EDT Latitude Longitude Course Direction KTS MPH feet Rate Location/Type
05:48PM 42.2236 -83.5639 255° West 111 128 1,500  Level Cleveland Center
05:49PM 42.2456 -83.5986 310° West 127 146 2,500 780 Climbing Cleveland Center
05:50PM 42.2739 -83.6308 320° Northwest 136 157 3,100 600 Climbing Cleveland Center
05:51PM 42.3094 -83.6242 North 123 142 3,800 600 Climbing Cleveland Center
05:52PM 42.3353 -83.5917 43° Northeast 131 151 4,500 540 Climbing Cleveland Center
05:53PM 42.3408 -83.5469 80° East 129 148 5,000 240 Climbing Cleveland Center
05:54PM 42.3192 -83.4953 120° Southeast 166 191 5,000  Level Cleveland Center
05:55PM 42.2956 -83.4408 120° Southeast 171 197 5,000  Level Cleveland Center
05:57PM 42.2742 -83.3753 114° Southeast 165 190 5,000 -60 Level Cleveland Center
05:58PM 42.2525 -83.3211 118° Southeast 159 183 4,900  Descending Cleveland Center
05:58PM 42.2392 -83.2700 109° East 156 180 5,000 60 Climbing Cleveland Center
05:59PM 42.2217 -83.2133 113° Southeast 161 185 5,100  Climbing Cleveland Center
06:00PM 42.2061 -83.1650 113° Southeast 157 181 5,000 -60 Descending Cleveland Center
06:01PM 42.1864 -83.1081 115° Southeast 160 184 5,000  Level Cleveland Center
06:03PM 42.1647 -83.0539 118° Southeast 162 186 5,000  Level Cleveland Center
06:04PM 42.1389 -82.9997 123° Southeast 167 192 5,000 -60 Level Cleveland Center
06:05PM 42.1106 -82.9483 127° Southeast 166 191 4,900  Descending Cleveland Center
06:06PM 42.0867 -82.8942 121° Southeast 168 193 5,100  Climbing Cleveland Center
06:07PM 42.0628 -82.8403 121° Southeast 171 197 5,000 -60 Descending Cleveland Center
06:07PM 42.0408 -82.7919 121° Southeast 170 196 5,000  Level Cleveland Center
06:08PM 42.0147 -82.7436 126° Southeast 169 194 5,000 60 Level Cleveland Center
06:09PM 42.0047 -82.7236 124° Southeast 170 196 5,100  Climbing Cleveland Center
06:10PM 41.9803 -82.6781 126° Southeast 168 193 5,000 -60 Descending Cleveland Center
06:11PM 41.9564 -82.6242 121° Southeast 168 193 5,000 -60 Level Cleveland Center
06:12PM 41.9303 -82.5703 123° Southeast 168 193 4,900  Descending Cleveland Center
06:13PM 41.9042 -82.5167 123° Southeast 168 193 5,000  Climbing Cleveland Center
06:14PM 41.8819 -82.4600 118° Southeast 173 199 5,000  Level Cleveland Center
06:15PM 41.8578 -82.4119 124° Southeast 170 196 5,000 -120 Level Cleveland Center
06:16PM 41.8275 -82.3525 124° Southeast 168 193 4,800 -420 Descending Cleveland Center
06:17PM 41.7992 -82.2906 122° Southeast 184 212 4,200 -600 Descending Cleveland Center
06:18PM 41.7708 -82.2314 123° Southeast 186 214 3,600 -600 Descending Cleveland Center
06:19PM 41.7447 -82.1722 121° Southeast 180 207 3,100 -300 Descending Cleveland Center
06:20PM 41.7183 -82.1214 125° Southeast 171 197 3,000 -60 Descending Cleveland Center
06:21PM 41.6961 -82.0681 119° Southeast 157 181 3,000 -60 Level Cleveland Center
06:22PM 41.6611 -82.0200 134° Southeast 157 181 2,900 -120 Descending Cleveland Center
06:23PM 41.6325 -81.9694 127° Southeast 163 188 2,800 -300 Descending Cleveland Center
06:24PM 41.6061 -81.9217 126° Southeast 169 194 2,400 -360 Descending Cleveland Center
06:25PM 41.5817 -81.8739 124° Southeast 173 199 2,200 -240 Descending Cleveland Center
06:26PM 41.5553 -81.8178 122° Southeast 173 199 2,000 -240 Descending Cleveland Center
06:27PM 41.5369 -81.7786 122° Southeast 165 190 1,800 -540 Descending Cleveland Center
06:28PM 41.5061 -81.7172 124° Southeast 143 165 1,000 -660 Descending Cleveland Center